sensor_id;sensor_type;location;lat;lon;timestamp;pressure;altitude;pressure_sealevel;temperature;humidity
17054;BME280;8643;48.824;11.422;2023-12-29T00:01:31;97059.03;;;1.86;100.00
17054;BME280;8643;48.824;11.422;2023-12-29T00:04:01;97065.00;;;1.78;100.00
17054;BME280;8643;48.824;11.422;2023-12-29T00:06:29;97062.81;;;1.80;100.00
17054;BME280;8643;48.824;11.422;2023-12-29T00:08:59;97068.19;;;1.90;100.00
17054;BME280;8643;48.824;11.422;2023-12-29T00:11:27;97072.75;;;2.05;100.00
17054;BME280;8643;48.824;11.422;2023-12-29T00:13:56;97078.69;;;2.17;100.00
17054;BME280;8643;48.824;11.422;2023-12-29T00:16:27;97076.00;;;2.12;100.00
17054;BME280;8643;48.824;11.422;2023-12-29T00:18:55;97082.22;;;2.03;100.00
17054;BME280;8643;48.824;11.422;2023-12-29T00:21:24;97073.03;;;1.98;100.00
17054;BME280;8643;48.824;11.422;2023-12-29T00:23:52;97061.75;;;1.71;100.00
17054;BME280;8643;48.824;11.422;2023-12-29T00:26:24;97058.25;;;1.60;100.00
17054;BME280;8643;48.824;11.422;2023-12-29T00:28:57;97071.47;;;1.51;100.00
17054;BME280;8643;48.824;11.422;2023-12-29T00:31:26;97066.06;;;1.41;100.00
17054;BME280;8643;48.824;11.422;2023-12-29T00:33:54;97067.69;;;1.32;100.00
17054;BME280;8643;48.824;11.422;2023-12-29T00:36:24;97060.13;;;1.23;100.00
17054;BME280;8643;48.824;11.422;2023-12-29T00:38:53;97069.28;;;1.17;100.00
17054;BME280;8643;48.824;11.422;2023-12-29T00:41:23;97069.53;;;1.16;100.00
17054;BME280;8643;48.824;11.422;2023-12-29T00:43:51;97065.50;;;1.08;100.00
17054;BME280;8643;48.824;11.422;2023-12-29T00:46:20;97065.72;;;0.96;100.00
17054;BME280;8643;48.824;11.422;2023-12-29T00:48:49;97070.84;;;0.93;100.00
17054;BME280;8643;48.824;11.422;2023-12-29T00:51:18;97065.97;;;0.84;100.00
17054;BME280;8643;48.824;11.422;2023-12-29T00:53:46;97065.44;;;0.77;100.00
17054;BME280;8643;48.824;11.422;2023-12-29T00:56:14;97066.50;;;0.76;100.00
17054;BME280;8643;48.824;11.422;2023-12-29T00:58:45;97060.28;;;0.65;100.00
17054;BME280;8643;48.824;11.422;2023-12-29T01:01:13;97055.97;;;0.64;100.00
17054;BME280;8643;48.824;11.422;2023-12-29T01:03:42;97075.09;;;0.68;100.00
17054;BME280;8643;48.824;11.422;2023-12-29T01:06:10;97063.53;;;0.72;100.00
17054;BME280;8643;48.824;11.422;2023-12-29T01:08:38;97067.34;;;0.82;100.00
17054;BME280;8643;48.824;11.422;2023-12-29T01:11:07;97063.28;;;0.89;100.00
17054;BME280;8643;48.824;11.422;2023-12-29T01:13:37;97069.78;;;0.99;100.00
17054;BME280;8643;48.824;11.422;2023-12-29T01:16:07;97059.28;;;1.02;100.00
17054;BME280;8643;48.824;11.422;2023-12-29T01:18:35;97056.88;;;1.11;100.00
17054;BME280;8643;48.824;11.422;2023-12-29T01:21:04;97055.78;;;1.17;100.00
17054;BME280;8643;48.824;11.422;2023-12-29T01:23:33;97057.41;;;1.28;100.00
17054;BME280;8643;48.824;11.422;2023-12-29T01:26:02;97074.69;;;1.48;100.00
17054;BME280;8643;48.824;11.422;2023-12-29T01:28:30;97067.41;;;1.38;100.00
17054;BME280;8643;48.824;11.422;2023-12-29T01:30:59;97072.28;;;1.36;100.00
17054;BME280;8643;48.824;11.422;2023-12-29T01:33:29;97079.03;;;1.34;100.00
17054;BME280;8643;48.824;11.422;2023-12-29T01:35:58;97073.38;;;1.45;100.00
17054;BME280;8643;48.824;11.422;2023-12-29T01:38:40;97068.78;;;1.36;100.00
17054;BME280;8643;48.824;11.422;2023-12-29T01:41:09;97064.19;;;1.31;100.00
17054;BME280;8643;48.824;11.422;2023-12-29T01:44:21;97058.25;;;1.24;100.00
17054;BME280;8643;48.824;11.422;2023-12-29T01:46:52;97054.44;;;1.20;100.00
17054;BME280;8643;48.824;11.422;2023-12-29T01:49:23;97048.53;;;1.18;100.00
17054;BME280;8643;48.824;11.422;2023-12-29T01:51:56;97050.66;;;1.16;100.00
17054;BME280;8643;48.824;11.422;2023-12-29T01:54:28;97047.44;;;1.14;100.00
17054;BME280;8643;48.824;11.422;2023-12-29T01:57:02;97045.81;;;1.13;100.00
17054;BME280;8643;48.824;11.422;2023-12-29T01:59:32;97050.13;;;1.14;100.00
17054;BME280;8643;48.824;11.422;2023-12-29T02:02:01;97049.06;;;1.09;100.00
17054;BME280;8643;48.824;11.422;2023-12-29T02:04:33;97048.75;;;1.06;100.00
17054;BME280;8643;48.824;11.422;2023-12-29T02:07:01;97043.13;;;1.13;100.00
17054;BME280;8643;48.824;11.422;2023-12-29T02:09:30;97052.81;;;1.14;100.00
17054;BME280;8643;48.824;11.422;2023-12-29T02:12:02;97042.88;;;1.14;100.00
17054;BME280;8643;48.824;11.422;2023-12-29T02:14:31;97045.28;;;1.21;100.00
17054;BME280;8643;48.824;11.422;2023-12-29T02:17:09;97045.03;;;1.27;100.00
17054;BME280;8643;48.824;11.422;2023-12-29T02:19:41;97042.84;;;1.30;100.00
17054;BME280;8643;48.824;11.422;2023-12-29T02:22:13;97022.63;;;1.32;100.00
17054;BME280;8643;48.824;11.422;2023-12-29T02:24:46;97011.03;;;1.32;100.00
17054;BME280;8643;48.824;11.422;2023-12-29T02:27:26;97014.25;;;1.23;100.00
17054;BME280;8643;48.824;11.422;2023-12-29T02:30:10;97009.41;;;1.20;100.00
17054;BME280;8643;48.824;11.422;2023-12-29T02:32:42;97015.91;;;1.14;100.00
17054;BME280;8643;48.824;11.422;2023-12-29T02:35:17;97006.16;;;1.13;100.00
17054;BME280;8643;48.824;11.422;2023-12-29T02:37:48;97011.56;;;1.13;100.00
17054;BME280;8643;48.824;11.422;2023-12-29T02:40:18;97009.13;;;1.17;100.00
17054;BME280;8643;48.824;11.422;2023-12-29T02:42:49;97016.97;;;1.18;100.00
17054;BME280;8643;48.824;11.422;2023-12-29T02:45:18;97014.00;;;1.15;100.00
17054;BME280;8643;48.824;11.422;2023-12-29T02:47:48;97012.09;;;1.10;100.00
17054;BME280;8643;48.824;11.422;2023-12-29T02:50:17;97002.38;;;1.04;100.00
17054;BME280;8643;48.824;11.422;2023-12-29T02:52:45;96995.09;;;0.99;100.00
17054;BME280;8643;48.824;11.422;2023-12-29T02:55:14;96999.16;;;0.91;100.00
17054;BME280;8643;48.824;11.422;2023-12-29T02:57:44;97000.75;;;0.87;100.00
17054;BME280;8643;48.824;11.422;2023-12-29T03:00:14;96998.06;;;0.82;100.00
17054;BME280;8643;48.824;11.422;2023-12-29T03:02:42;96978.91;;;0.73;100.00
17054;BME280;8643;48.824;11.422;2023-12-29T03:05:11;96983.19;;;0.75;100.00
17054;BME280;8643;48.824;11.422;2023-12-29T03:07:40;96994.25;;;0.73;100.00
17054;BME280;8643;48.824;11.422;2023-12-29T03:10:09;96979.69;;;0.69;100.00
17054;BME280;8643;48.824;11.422;2023-12-29T03:12:38;96977.00;;;0.69;100.00
17054;BME280;8643;48.824;11.422;2023-12-29T03:15:09;96972.69;;;0.78;100.00
17054;BME280;8643;48.824;11.422;2023-12-29T03:17:37;96973.78;;;0.82;100.00
17054;BME280;8643;48.824;11.422;2023-12-29T03:20:07;96988.63;;;0.95;100.00
17054;BME280;8643;48.824;11.422;2023-12-29T03:22:36;96985.41;;;1.24;100.00
17054;BME280;8643;48.824;11.422;2023-12-29T03:25:05;96985.94;;;1.52;100.00
17054;BME280;8643;48.824;11.422;2023-12-29T03:27:34;96971.59;;;1.67;100.00
17054;BME280;8643;48.824;11.422;2023-12-29T03:30:03;96984.28;;;1.71;100.00
17054;BME280;8643;48.824;11.422;2023-12-29T03:32:34;96991.50;;;1.91;100.00
17054;BME280;8643;48.824;11.422;2023-12-29T03:35:03;96996.28;;;2.20;100.00
17054;BME280;8643;48.824;11.422;2023-12-29T03:37:32;97001.34;;;2.37;100.00
17054;BME280;8643;48.824;11.422;2023-12-29T03:40:00;96995.06;;;2.47;100.00
17054;BME280;8643;48.824;11.422;2023-12-29T03:42:29;96987.19;;;2.55;100.00
17054;BME280;8643;48.824;11.422;2023-12-29T03:44:58;96986.13;;;2.51;100.00
17054;BME280;8643;48.824;11.422;2023-12-29T03:47:26;96980.22;;;2.44;100.00
17054;BME280;8643;48.824;11.422;2023-12-29T03:49:58;96979.97;;;2.41;100.00
17054;BME280;8643;48.824;11.422;2023-12-29T03:52:27;96980.53;;;2.37;100.00
17054;BME280;8643;48.824;11.422;2023-12-29T03:54:55;96969.72;;;2.37;100.00
17054;BME280;8643;48.824;11.422;2023-12-29T03:57:24;96964.31;;;2.37;100.00
17054;BME280;8643;48.824;11.422;2023-12-29T03:59:52;96964.31;;;2.37;100.00
17054;BME280;8643;48.824;11.422;2023-12-29T04:02:21;96958.41;;;2.30;100.00
17054;BME280;8643;48.824;11.422;2023-12-29T04:04:50;96962.78;;;2.16;100.00
17054;BME280;8643;48.824;11.422;2023-12-29T04:07:20;96947.72;;;2.05;100.00
17054;BME280;8643;48.824;11.422;2023-12-29T04:09:48;96942.31;;;1.99;100.00
17054;BME280;8643;48.824;11.422;2023-12-29T04:12:17;96941.22;;;2.06;100.00
17054;BME280;8643;48.824;11.422;2023-12-29T04:14:46;96944.69;;;2.11;100.00
17054;BME280;8643;48.824;11.422;2023-12-29T04:17:15;96948.47;;;2.15;100.00
17054;BME280;8643;48.824;11.422;2023-12-29T04:19:43;96951.97;;;2.21;100.00
17054;BME280;8643;48.824;11.422;2023-12-29T04:22:13;96937.09;;;2.24;100.00
17054;BME280;8643;48.824;11.422;2023-12-29T04:24:43;96931.69;;;2.24;100.00
17054;BME280;8643;48.824;11.422;2023-12-29T04:27:11;96925.28;;;2.09;100.00
17054;BME280;8643;48.824;11.422;2023-12-29T04:29:40;96931.81;;;1.93;100.00
17054;BME280;8643;48.824;11.422;2023-12-29T04:32:08;96921.09;;;1.72;100.00
17054;BME280;8643;48.824;11.422;2023-12-29T04:34:37;96912.50;;;1.55;100.00
17054;BME280;8643;48.824;11.422;2023-12-29T04:37:05;96919.00;;;1.54;100.00
17054;BME280;8643;48.824;11.422;2023-12-29T04:39:34;96927.38;;;1.42;100.00
17054;BME280;8643;48.824;11.422;2023-12-29T04:42:04;96934.13;;;1.34;100.00
17054;BME280;8643;48.824;11.422;2023-12-29T04:44:34;96936.56;;;1.31;100.00
17054;BME280;8643;48.824;11.422;2023-12-29T04:47:03;96940.09;;;1.26;100.00
17054;BME280;8643;48.824;11.422;2023-12-29T04:49:31;96943.03;;;1.30;100.00
17054;BME280;8643;48.824;11.422;2023-12-29T04:52:00;96944.66;;;1.36;100.00
17054;BME280;8643;48.824;11.422;2023-12-29T04:54:28;96947.34;;;1.41;100.00
17054;BME280;8643;48.824;11.422;2023-12-29T04:56:57;96961.63;;;1.57;100.00
17054;BME280;8643;48.824;11.422;2023-12-29T04:59:27;96963.72;;;1.80;100.00
17054;BME280;8643;48.824;11.422;2023-12-29T05:01:55;96964.47;;;1.96;100.00
17054;BME280;8643;48.824;11.422;2023-12-29T05:04:24;96973.34;;;2.12;100.00
17054;BME280;8643;48.824;11.422;2023-12-29T05:06:52;96961.69;;;2.22;100.00
17054;BME280;8643;48.824;11.422;2023-12-29T05:09:21;96971.13;;;2.19;100.00
17054;BME280;8643;48.824;11.422;2023-12-29T05:11:49;96965.22;;;2.17;100.00
17054;BME280;8643;48.824;11.422;2023-12-29T05:14:18;96964.41;;;2.17;100.00
17054;BME280;8643;48.824;11.422;2023-12-29T05:16:47;96962.28;;;2.09;100.00
17054;BME280;8643;48.824;11.422;2023-12-29T05:19:16;96958.53;;;1.99;100.00
17054;BME280;8643;48.824;11.422;2023-12-29T05:21:44;96962.06;;;1.95;100.00
17054;BME280;8643;48.824;11.422;2023-12-29T05:24:13;96962.59;;;1.97;100.00
17054;BME280;8643;48.824;11.422;2023-12-29T05:26:41;96953.13;;;1.99;100.00
17054;BME280;8643;48.824;11.422;2023-12-29T05:29:10;96947.75;;;1.94;100.00
17054;BME280;8643;48.824;11.422;2023-12-29T05:31:38;96960.19;;;1.90;100.00
17054;BME280;8643;48.824;11.422;2023-12-29T05:34:08;96958.84;;;1.82;100.00
17054;BME280;8643;48.824;11.422;2023-12-29T05:36:37;96954.00;;;1.85;100.00
17054;BME280;8643;48.824;11.422;2023-12-29T05:39:06;96960.22;;;1.80;100.00
17054;BME280;8643;48.824;11.422;2023-12-29T05:41:36;96957.78;;;1.78;100.00
17054;BME280;8643;48.824;11.422;2023-12-29T05:44:04;96959.16;;;1.71;100.00
17054;BME280;8643;48.824;11.422;2023-12-29T05:46:33;96957.03;;;1.57;100.00
17054;BME280;8643;48.824;11.422;2023-12-29T05:49:02;96955.94;;;1.53;100.00
17054;BME280;8643;48.824;11.422;2023-12-29T05:51:31;96965.69;;;1.49;100.00
17054;BME280;8643;48.824;11.422;2023-12-29T05:54:00;96965.16;;;1.47;100.00
17054;BME280;8643;48.824;11.422;2023-12-29T05:56:29;96973.25;;;1.42;100.00
17054;BME280;8643;48.824;11.422;2023-12-29T05:58:57;96976.50;;;1.44;100.00
17054;BME280;8643;48.824;11.422;2023-12-29T06:01:26;96973.78;;;1.44;100.00
17054;BME280;8643;48.824;11.422;2023-12-29T06:03:54;96976.47;;;1.49;100.00
17054;BME280;8643;48.824;11.422;2023-12-29T06:06:23;96970.81;;;1.45;100.00
17054;BME280;8643;48.824;11.422;2023-12-29T06:08:55;96976.50;;;1.44;100.00
17054;BME280;8643;48.824;11.422;2023-12-29T06:11:24;96972.69;;;1.45;100.00
17054;BME280;8643;48.824;11.422;2023-12-29T06:13:52;96969.47;;;1.43;100.00
17054;BME280;8643;48.824;11.422;2023-12-29T06:16:21;96965.44;;;1.40;100.00
17054;BME280;8643;48.824;11.422;2023-12-29T06:18:50;96959.75;;;1.32;100.00
17054;BME280;8643;48.824;11.422;2023-12-29T06:21:19;96956.28;;;1.26;100.00
17054;BME280;8643;48.824;11.422;2023-12-29T06:23:48;96960.31;;;1.23;100.00
17054;BME280;8643;48.824;11.422;2023-12-29T06:26:19;96963.81;;;1.29;100.00
17054;BME280;8643;48.824;11.422;2023-12-29T06:28:50;96959.47;;;1.38;100.00
17054;BME280;8643;48.824;11.422;2023-12-29T06:31:18;96959.50;;;1.43;100.00
17054;BME280;8643;48.824;11.422;2023-12-29T06:33:47;96968.91;;;1.51;100.00
17054;BME280;8643;48.824;11.422;2023-12-29T06:36:16;96974.84;;;1.58;100.00
17054;BME280;8643;48.824;11.422;2023-12-29T06:38:44;96967.28;;;1.60;100.00
17054;BME280;8643;48.824;11.422;2023-12-29T06:41:17;96973.19;;;1.68;100.00
17054;BME280;8643;48.824;11.422;2023-12-29T06:43:45;96968.56;;;1.83;100.00
17054;BME280;8643;48.824;11.422;2023-12-29T06:46:14;96971.22;;;1.94;100.00
17054;BME280;8643;48.824;11.422;2023-12-29T06:48:42;96967.16;;;2.01;100.00
17054;BME280;8643;48.824;11.422;2023-12-29T06:51:16;96965.53;;;2.06;100.00
17054;BME280;8643;48.824;11.422;2023-12-29T06:53:46;96953.94;;;2.00;100.00
17054;BME280;8643;48.824;11.422;2023-12-29T06:56:16;96961.25;;;1.94;100.00
17054;BME280;8643;48.824;11.422;2023-12-29T06:58:45;96964.22;;;1.93;100.00
17054;BME280;8643;48.824;11.422;2023-12-29T07:01:14;96970.72;;;1.92;100.00
17054;BME280;8643;48.824;11.422;2023-12-29T07:03:43;96964.50;;;1.91;100.00
17054;BME280;8643;48.824;11.422;2023-12-29T07:06:12;96954.50;;;1.92;100.00
17054;BME280;8643;48.824;11.422;2023-12-29T07:08:41;96958.31;;;1.91;100.00
17054;BME280;8643;48.824;11.422;2023-12-29T07:11:10;96951.56;;;1.83;100.00
17054;BME280;8643;48.824;11.422;2023-12-29T07:13:41;96957.28;;;1.71;100.00
17054;BME280;8643;48.824;11.422;2023-12-29T07:16:09;96966.97;;;1.72;100.00
17054;BME280;8643;48.824;11.422;2023-12-29T07:18:38;96966.97;;;1.77;100.00
17054;BME280;8643;48.824;11.422;2023-12-29T07:21:07;96963.69;;;1.86;100.00
17054;BME280;8643;48.824;11.422;2023-12-29T07:23:35;96979.63;;;1.97;100.00
17054;BME280;8643;48.824;11.422;2023-12-29T07:26:05;96977.94;;;2.07;100.00
17054;BME280;8643;48.824;11.422;2023-12-29T07:28:34;96974.69;;;2.10;100.00
17054;BME280;8643;48.824;11.422;2023-12-29T07:31:04;96979.28;;;2.14;100.00
17054;BME280;8643;48.824;11.422;2023-12-29T07:33:33;96987.31;;;2.25;100.00
17054;BME280;8643;48.824;11.422;2023-12-29T07:36:02;96988.09;;;2.35;100.00
17054;BME280;8643;48.824;11.422;2023-12-29T07:38:31;96995.88;;;2.47;100.00
17054;BME280;8643;48.824;11.422;2023-12-29T07:41:00;96994.97;;;2.62;100.00
17054;BME280;8643;48.824;11.422;2023-12-29T07:43:29;96988.72;;;2.72;100.00
17054;BME280;8643;48.824;11.422;2023-12-29T07:45:57;96984.06;;;2.83;100.00
17054;BME280;8643;48.824;11.422;2023-12-29T07:48:27;96993.19;;;2.92;100.00
17054;BME280;8643;48.824;11.422;2023-12-29T07:51:04;96993.19;;;2.92;100.00
17054;BME280;8643;48.824;11.422;2023-12-29T07:53:33;96992.59;;;3.00;100.00
17054;BME280;8643;48.824;11.422;2023-12-29T07:56:01;96995.28;;;3.05;100.00
17054;BME280;8643;48.824;11.422;2023-12-29T07:58:29;96992.00;;;3.08;100.00
17054;BME280;8643;48.824;11.422;2023-12-29T08:00:58;96988.69;;;3.17;100.00
17054;BME280;8643;48.824;11.422;2023-12-29T08:03:28;96994.31;;;3.25;100.00
17054;BME280;8643;48.824;11.422;2023-12-29T08:05:56;96991.59;;;3.25;100.00
17054;BME280;8643;48.824;11.422;2023-12-29T08:08:25;96988.13;;;3.20;100.00
17054;BME280;8643;48.824;11.422;2023-12-29T08:10:53;96979.47;;;3.18;100.00
17054;BME280;8643;48.824;11.422;2023-12-29T08:13:21;96980.06;;;3.09;100.00
17054;BME280;8643;48.824;11.422;2023-12-29T08:15:50;96975.81;;;2.98;100.00
17054;BME280;8643;48.824;11.422;2023-12-29T08:18:18;96975.06;;;2.92;100.00
17054;BME280;8643;48.824;11.422;2023-12-29T08:20:48;96981.03;;;2.89;100.00
17054;BME280;8643;48.824;11.422;2023-12-29T08:23:16;96977.25;;;2.90;100.00
17054;BME280;8643;48.824;11.422;2023-12-29T08:25:45;96973.13;;;2.98;100.00
17054;BME280;8643;48.824;11.422;2023-12-29T08:28:14;96975.50;;;3.10;100.00
17054;BME280;8643;48.824;11.422;2023-12-29T08:30:44;96985.09;;;3.26;100.00
17054;BME280;8643;48.824;11.422;2023-12-29T08:33:13;96972.88;;;3.34;100.00
17054;BME280;8643;48.824;11.422;2023-12-29T08:35:42;96971.44;;;3.42;100.00
17054;BME280;8643;48.824;11.422;2023-12-29T08:38:13;96981.34;;;3.52;100.00
17054;BME280;8643;48.824;11.422;2023-12-29T08:40:41;96987.59;;;3.52;100.00
17054;BME280;8643;48.824;11.422;2023-12-29T08:43:10;96986.16;;;3.60;100.00
17054;BME280;8643;48.824;11.422;2023-12-29T08:45:38;96983.38;;;3.70;100.00
17054;BME280;8643;48.824;11.422;2023-12-29T08:48:08;96989.22;;;3.77;100.00
17054;BME280;8643;48.824;11.422;2023-12-29T08:50:37;96993.50;;;3.83;100.00
17054;BME280;8643;48.824;11.422;2023-12-29T08:53:05;96993.13;;;3.95;100.00
17054;BME280;8643;48.824;11.422;2023-12-29T08:55:35;96984.69;;;3.97;100.00
17054;BME280;8643;48.824;11.422;2023-12-29T08:58:04;96989.41;;;4.10;100.00
17054;BME280;8643;48.824;11.422;2023-12-29T09:00:34;96981.41;;;4.24;100.00
17054;BME280;8643;48.824;11.422;2023-12-29T09:03:03;96975.34;;;4.32;100.00
17054;BME280;8643;48.824;11.422;2023-12-29T09:05:31;96973.00;;;4.45;100.00
17054;BME280;8643;48.824;11.422;2023-12-29T09:08:00;96986.91;;;4.62;100.00
17054;BME280;8643;48.824;11.422;2023-12-29T09:10:28;96982.94;;;4.73;100.00
17054;BME280;8643;48.824;11.422;2023-12-29T09:12:58;96992.34;;;4.81;100.00
17054;BME280;8643;48.824;11.422;2023-12-29T09:15:27;97005.81;;;4.86;100.00
17054;BME280;8643;48.824;11.422;2023-12-29T09:17:55;96995.97;;;4.90;100.00
17054;BME280;8643;48.824;11.422;2023-12-29T09:20:24;97000.75;;;4.99;100.00
17054;BME280;8643;48.824;11.422;2023-12-29T09:22:52;96998.91;;;5.13;100.00
17054;BME280;8643;48.824;11.422;2023-12-29T09:25:23;96994.47;;;5.36;100.00
17054;BME280;8643;48.824;11.422;2023-12-29T09:27:51;96997.63;;;5.43;100.00
17054;BME280;8643;48.824;11.422;2023-12-29T09:30:21;96997.75;;;5.52;100.00
17054;BME280;8643;48.824;11.422;2023-12-29T09:32:50;96993.16;;;5.66;100.00
17054;BME280;8643;48.824;11.422;2023-12-29T09:35:18;96997.22;;;5.83;100.00
17054;BME280;8643;48.824;11.422;2023-12-29T09:37:48;96992.13;;;5.95;100.00
17054;BME280;8643;48.824;11.422;2023-12-29T09:40:16;96987.63;;;6.32;100.00
17054;BME280;8643;48.824;11.422;2023-12-29T09:42:46;96985.81;;;6.55;100.00
17054;BME280;8643;48.824;11.422;2023-12-29T09:45:24;96981.91;;;6.84;100.00
17054;BME280;8643;48.824;11.422;2023-12-29T09:47:56;96985.22;;;6.81;100.00
17054;BME280;8643;48.824;11.422;2023-12-29T09:50:27;96979.41;;;6.74;100.00
17054;BME280;8643;48.824;11.422;2023-12-29T09:52:56;96984.31;;;6.86;100.00
17054;BME280;8643;48.824;11.422;2023-12-29T09:55:26;96979.69;;;6.86;100.00
17054;BME280;8643;48.824;11.422;2023-12-29T09:57:55;96978.66;;;6.96;100.00
17054;BME280;8643;48.824;11.422;2023-12-29T10:00:26;96980.06;;;6.93;100.00
17054;BME280;8643;48.824;11.422;2023-12-29T10:02:57;96980.38;;;6.92;100.00
17054;BME280;8643;48.824;11.422;2023-12-29T10:05:26;96974.31;;;6.95;100.00
17054;BME280;8643;48.824;11.422;2023-12-29T10:07:56;96981.63;;;7.08;100.00
17054;BME280;8643;48.824;11.422;2023-12-29T10:10:27;96973.44;;;7.45;100.00
17054;BME280;8643;48.824;11.422;2023-12-29T10:12:57;96970.59;;;7.81;100.00
17054;BME280;8643;48.824;11.422;2023-12-29T10:15:37;96967.59;;;7.92;100.00
17054;BME280;8643;48.824;11.422;2023-12-29T10:18:14;96973.97;;;7.87;100.00
17054;BME280;8643;48.824;11.422;2023-12-29T10:20:59;96971.22;;;7.78;100.00
17054;BME280;8643;48.824;11.422;2023-12-29T10:23:37;96973.66;;;7.57;100.00
17054;BME280;8643;48.824;11.422;2023-12-29T10:26:10;96964.50;;;7.53;100.00
17054;BME280;8643;48.824;11.422;2023-12-29T10:28:39;96959.59;;;7.64;100.00
17054;BME280;8643;48.824;11.422;2023-12-29T10:31:14;96959.44;;;7.69;100.00
17054;BME280;8643;48.824;11.422;2023-12-29T10:33:43;96951.50;;;7.81;100.00
17054;BME280;8643;48.824;11.422;2023-12-29T10:36:18;96960.50;;;8.22;100.00
17054;BME280;8643;48.824;11.422;2023-12-29T10:38:46;96962.75;;;8.29;100.00
17054;BME280;8643;48.824;11.422;2023-12-29T10:41:19;96948.00;;;8.30;100.00
17054;BME280;8643;48.824;11.422;2023-12-29T10:43:47;96950.50;;;8.08;100.00
17054;BME280;8643;48.824;11.422;2023-12-29T10:46:20;96946.13;;;7.99;100.00
17054;BME280;8643;48.824;11.422;2023-12-29T10:48:49;96942.59;;;7.98;100.00
17054;BME280;8643;48.824;11.422;2023-12-29T10:51:27;96943.88;;;8.01;100.00
17054;BME280;8643;48.824;11.422;2023-12-29T10:53:56;96937.75;;;7.95;100.00
17054;BME280;8643;48.824;11.422;2023-12-29T10:56:25;96930.88;;;7.98;100.00
17054;BME280;8643;48.824;11.422;2023-12-29T10:59:01;96938.75;;;7.99;100.00
17054;BME280;8643;48.824;11.422;2023-12-29T11:01:34;96925.22;;;7.85;100.00
17054;BME280;8643;48.824;11.422;2023-12-29T11:04:04;96928.75;;;7.86;100.00
17054;BME280;8643;48.824;11.422;2023-12-29T11:06:41;96918.34;;;7.88;100.00
17054;BME280;8643;48.824;11.422;2023-12-29T11:09:11;96919.00;;;7.94;100.00
17054;BME280;8643;48.824;11.422;2023-12-29T11:11:40;96908.44;;;8.01;100.00
17054;BME280;8643;48.824;11.422;2023-12-29T11:14:11;96910.38;;;8.00;100.00
17054;BME280;8643;48.824;11.422;2023-12-29T11:16:42;96912.31;;;8.08;100.00
17054;BME280;8643;48.824;11.422;2023-12-29T11:19:12;96911.38;;;8.13;100.00
17054;BME280;8643;48.824;11.422;2023-12-29T11:21:43;96900.66;;;8.25;100.00
17054;BME280;8643;48.824;11.422;2023-12-29T11:24:12;96897.13;;;8.42;100.00
17054;BME280;8643;48.824;11.422;2023-12-29T11:26:50;96892.16;;;8.36;100.00
17054;BME280;8643;48.824;11.422;2023-12-29T11:29:18;96898.03;;;8.60;100.00
17054;BME280;8643;48.824;11.422;2023-12-29T11:31:52;96885.16;;;8.70;100.00
17054;BME280;8643;48.824;11.422;2023-12-29T11:34:29;96888.84;;;8.65;100.00
17054;BME280;8643;48.824;11.422;2023-12-29T11:37:21;96884.69;;;8.59;100.00
17054;BME280;8643;48.824;11.422;2023-12-29T11:40:07;96876.19;;;8.60;100.00
17054;BME280;8643;48.824;11.422;2023-12-29T11:42:41;96875.38;;;8.60;100.00
17054;BME280;8643;48.824;11.422;2023-12-29T11:45:28;96873.13;;;8.53;100.00
17054;BME280;8643;48.824;11.422;2023-12-29T11:48:00;96866.38;;;8.59;100.00
17054;BME280;8643;48.824;11.422;2023-12-29T11:50:32;96870.72;;;8.78;100.00
17054;BME280;8643;48.824;11.422;2023-12-29T11:53:01;96851.28;;;8.79;100.00
17054;BME280;8643;48.824;11.422;2023-12-29T11:55:31;96859.78;;;8.95;100.00
17054;BME280;8643;48.824;11.422;2023-12-29T11:58:01;96854.94;;;9.01;100.00
17054;BME280;8643;48.824;11.422;2023-12-29T12:00:45;96857.06;;;8.87;100.00
17054;BME280;8643;48.824;11.422;2023-12-29T12:03:18;96850.16;;;8.72;100.00
17054;BME280;8643;48.824;11.422;2023-12-29T12:05:53;96853.22;;;8.70;100.00
17054;BME280;8643;48.824;11.422;2023-12-29T12:08:29;96851.94;;;8.68;100.00
17054;BME280;8643;48.824;11.422;2023-12-29T12:11:42;96847.59;;;8.49;100.00
17054;BME280;8643;48.824;11.422;2023-12-29T12:14:45;96853.19;;;8.44;100.00
17054;BME280;8643;48.824;11.422;2023-12-29T12:17:30;96853.00;;;8.40;100.00
17054;BME280;8643;48.824;11.422;2023-12-29T12:20:07;96854.34;;;8.43;100.00
17054;BME280;8643;48.824;11.422;2023-12-29T12:22:37;96851.41;;;8.39;100.00
17054;BME280;8643;48.824;11.422;2023-12-29T12:25:08;96837.13;;;8.34;100.00
17054;BME280;8643;48.824;11.422;2023-12-29T12:27:39;96858.31;;;8.28;100.00
17054;BME280;8643;48.824;11.422;2023-12-29T12:30:09;96857.31;;;8.24;100.00
17054;BME280;8643;48.824;11.422;2023-12-29T12:32:38;96857.78;;;8.26;100.00
17054;BME280;8643;48.824;11.422;2023-12-29T12:35:15;96851.06;;;8.23;100.00
17054;BME280;8643;48.824;11.422;2023-12-29T12:37:47;96856.53;;;8.23;100.00
17054;BME280;8643;48.824;11.422;2023-12-29T12:40:25;96849.81;;;8.30;100.00
17054;BME280;8643;48.824;11.422;2023-12-29T12:42:54;96859.56;;;8.31;100.00
17054;BME280;8643;48.824;11.422;2023-12-29T12:45:27;96854.59;;;8.33;100.00
17054;BME280;8643;48.824;11.422;2023-12-29T12:48:09;96846.59;;;8.36;100.00
17054;BME280;8643;48.824;11.422;2023-12-29T12:50:44;96858.94;;;8.34;100.00
17054;BME280;8643;48.824;11.422;2023-12-29T12:53:15;96853.81;;;8.32;100.00
17054;BME280;8643;48.824;11.422;2023-12-29T12:55:48;96843.38;;;8.34;100.00
17054;BME280;8643;48.824;11.422;2023-12-29T12:58:19;96848.88;;;8.43;100.00
17054;BME280;8643;48.824;11.422;2023-12-29T13:00:49;96839.09;;;8.59;100.00
17054;BME280;8643;48.824;11.422;2023-12-29T13:03:22;96837.31;;;8.72;100.00
17054;BME280;8643;48.824;11.422;2023-12-29T13:05:53;96832.47;;;8.95;100.00
17054;BME280;8643;48.824;11.422;2023-12-29T13:08:22;96839.28;;;9.45;100.00
17054;BME280;8643;48.824;11.422;2023-12-29T13:11:04;96839.75;;;9.39;100.00
17054;BME280;8643;48.824;11.422;2023-12-29T13:13:37;96850.56;;;9.26;100.00
17054;BME280;8643;48.824;11.422;2023-12-29T13:16:06;96839.50;;;9.14;100.00
17054;BME280;8643;48.824;11.422;2023-12-29T13:18:35;96847.44;;;8.98;100.00